createdAt,value
2023-04-26T00:00:56.989Z,1.73
2023-04-26T00:03:30.493Z,1.97
2023-04-26T00:06:05.796Z,2.23
2023-04-26T00:08:38.962Z,2.17
2023-04-26T00:11:11.933Z,2.40
2023-04-26T00:13:46.016Z,1.70
2023-04-26T00:16:20.240Z,2.00
2023-04-26T00:18:54.704Z,1.87
2023-04-26T00:21:28.661Z,2.23
2023-04-26T00:24:01.447Z,2.17
2023-04-26T00:26:34.930Z,1.90
2023-04-26T00:29:09.229Z,2.17
2023-04-26T00:31:42.169Z,2.10
2023-04-26T00:34:15.004Z,2.33
2023-04-26T00:36:47.771Z,1.83
2023-04-26T00:39:21.722Z,2.80
2023-04-26T00:41:57.569Z,1.83
2023-04-26T00:44:31.620Z,2.60
2023-04-26T00:47:04.566Z,2.20
2023-04-26T00:49:37.511Z,2.57
2023-04-26T00:52:10.682Z,2.40
2023-04-26T00:54:43.790Z,2.43
2023-04-26T00:57:19.363Z,2.60
2023-04-26T00:59:53.500Z,2.63
2023-04-26T01:02:27.356Z,1.93
2023-04-26T01:05:00.315Z,2.00
2023-04-26T01:07:33.573Z,2.63
2023-04-26T01:10:07.139Z,2.57
2023-04-26T01:12:44.720Z,2.20
2023-04-26T01:15:18.853Z,2.10
2023-04-26T01:17:52.477Z,2.03
2023-04-26T01:20:26.084Z,2.10
2023-04-26T01:23:00.587Z,2.27
2023-04-26T01:25:34.306Z,2.40
2023-04-26T01:28:07.241Z,2.30
2023-04-26T01:30:40.096Z,2.37
2023-04-26T01:33:13.529Z,2.87
2023-04-26T01:35:46.339Z,2.00
2023-04-26T01:38:20.809Z,2.07
2023-04-26T01:40:53.539Z,2.40
2023-04-26T01:43:26.341Z,2.30
2023-04-26T01:45:59.590Z,2.20
2023-04-26T01:48:32.544Z,2.07
2023-04-26T01:51:05.806Z,2.13
2023-04-26T01:53:40.141Z,1.97
2023-04-26T01:56:12.808Z,3.70
2023-04-26T01:58:45.605Z,2.37
2023-04-26T02:01:18.349Z,2.10
2023-04-26T02:03:51.309Z,2.63
2023-04-26T02:06:24.100Z,2.30
2023-04-26T02:08:58.817Z,2.60
2023-04-26T02:11:31.597Z,2.37
2023-04-26T02:14:04.451Z,2.23
2023-04-26T02:16:40.401Z,2.43
2023-04-26T02:19:13.571Z,2.17
2023-04-26T02:21:53.469Z,2.30
2023-04-26T02:24:27.797Z,2.07
2023-04-26T02:27:03.899Z,2.33
2023-04-26T02:29:43.900Z,2.00
2023-04-26T02:32:17.365Z,2.27
2023-04-26T02:34:50.173Z,2.20
2023-04-26T02:37:23.283Z,2.63
2023-04-26T02:39:57.400Z,2.63
2023-04-26T02:42:30.155Z,2.00
2023-04-26T02:45:03.044Z,2.73
2023-04-26T02:47:36.916Z,2.00
2023-04-26T02:50:10.674Z,2.77
2023-04-26T02:52:43.387Z,2.97
2023-04-26T02:55:20.387Z,2.20
2023-04-26T02:57:54.349Z,2.27
2023-04-26T03:00:29.882Z,1.90
2023-04-26T03:03:02.928Z,2.40
2023-04-26T03:05:36.057Z,1.97
2023-04-26T03:08:09.148Z,2.77
2023-04-26T03:10:45.215Z,2.80
2023-04-26T03:13:18.127Z,2.17
2023-04-26T03:15:52.498Z,3.63
2023-04-26T03:18:33.569Z,2.47
2023-04-26T03:21:06.773Z,2.33
2023-04-26T03:23:39.558Z,1.97
2023-04-26T03:26:13.877Z,2.70
2023-04-26T03:28:46.568Z,2.77
2023-04-26T03:31:20.342Z,2.30
2023-04-26T03:33:53.389Z,2.77
2023-04-26T03:36:28.529Z,3.07
2023-04-26T03:39:01.235Z,2.73
2023-04-26T03:41:39.721Z,2.50
2023-04-26T03:44:12.916Z,2.87
2023-04-26T03:46:45.844Z,2.67
2023-04-26T03:49:21.444Z,2.50
2023-04-26T03:51:54.124Z,2.30
2023-04-26T03:54:26.999Z,2.27
2023-04-26T03:57:01.291Z,2.53
2023-04-26T03:59:34.138Z,2.60
2023-04-26T04:02:07.035Z,2.47
2023-04-26T04:04:40.021Z,2.67
2023-04-26T04:07:13.133Z,2.80
2023-04-26T04:09:46.186Z,2.63
2023-04-26T04:12:20.522Z,2.37
2023-04-26T04:14:53.583Z,2.60
2023-04-26T04:17:26.604Z,3.40
2023-04-26T04:19:59.435Z,2.30
2023-04-26T04:22:32.392Z,3.07
2023-04-26T04:25:05.991Z,3.20
2023-04-26T04:27:42.385Z,3.03
2023-04-26T04:30:15.241Z,3.67
2023-04-26T04:32:48.082Z,2.50
2023-04-26T04:35:21.147Z,2.70
2023-04-26T04:37:54.128Z,1.53
2023-04-26T04:40:27.099Z,3.10
2023-04-26T04:43:02.182Z,3.17
2023-04-26T04:45:35.447Z,2.83
2023-04-26T04:48:09.209Z,3.40
2023-04-26T04:50:42.748Z,2.87
2023-04-26T04:53:16.177Z,3.00
2023-04-26T04:55:49.255Z,3.17
2023-04-26T04:58:26.353Z,2.80
2023-04-26T05:01:01.329Z,2.67
2023-04-26T05:03:35.057Z,3.27
2023-04-26T05:06:08.159Z,3.30
2023-04-26T05:08:41.511Z,2.57
2023-04-26T05:11:14.250Z,2.53
2023-04-26T05:13:51.572Z,2.60
2023-04-26T05:16:25.884Z,2.27
2023-04-26T05:18:58.697Z,2.77
2023-04-26T05:21:31.802Z,3.17
2023-04-26T05:24:05.778Z,2.53
2023-04-26T05:26:38.578Z,3.33
2023-04-26T05:29:13.312Z,3.30
2023-04-26T05:31:47.048Z,3.23
2023-04-26T05:34:20.049Z,3.00
2023-04-26T05:36:52.936Z,3.03
2023-04-26T05:39:26.150Z,2.77
2023-04-26T05:41:59.099Z,3.03
2023-04-26T05:44:33.401Z,3.57
2023-04-26T05:47:06.362Z,2.80
2023-04-26T05:49:39.272Z,2.70
2023-04-26T05:52:12.192Z,2.70
2023-04-26T05:54:45.017Z,2.40
2023-04-26T05:57:18.937Z,2.33
2023-04-26T05:59:53.664Z,2.33
2023-04-26T06:02:26.988Z,2.20
2023-04-26T06:05:00.270Z,2.57
2023-04-26T06:07:33.335Z,3.00
2023-04-26T06:10:06.520Z,2.43
2023-04-26T06:12:39.658Z,3.20
2023-04-26T06:15:14.073Z,2.70
2023-04-26T06:17:47.021Z,2.80
2023-04-26T06:20:20.007Z,2.70
2023-04-26T06:22:52.753Z,2.43
2023-04-26T06:25:25.569Z,2.50
2023-04-26T06:27:58.806Z,2.53
2023-04-26T06:30:33.140Z,3.03
2023-04-26T06:33:06.113Z,2.10
2023-04-26T06:35:40.693Z,2.47
2023-04-26T06:38:13.821Z,2.57
2023-04-26T06:40:49.697Z,2.90
2023-04-26T06:43:25.277Z,3.00
2023-04-26T06:46:06.724Z,2.70
2023-04-26T06:48:39.493Z,2.80
2023-04-26T06:51:14.952Z,2.50
2023-04-26T06:53:48.302Z,2.90
2023-04-26T06:56:21.507Z,2.60
2023-04-26T06:59:01.418Z,2.13
2023-04-26T07:01:38.882Z,2.67
2023-04-26T07:04:11.773Z,2.60
2023-04-26T07:06:44.965Z,2.63
2023-04-26T07:09:17.887Z,2.30
2023-04-26T07:11:50.700Z,3.10
2023-04-26T07:14:23.639Z,2.00
2023-04-26T07:16:57.830Z,2.97
2023-04-26T07:19:30.929Z,2.03
2023-04-26T07:22:04.717Z,1.77
2023-04-26T07:24:37.651Z,2.70
2023-04-26T07:27:11.190Z,2.27
2023-04-26T07:29:44.173Z,2.73
2023-04-26T07:32:18.590Z,2.70
2023-04-26T07:34:51.682Z,2.83
2023-04-26T07:37:24.565Z,2.40
2023-04-26T07:39:57.621Z,1.60
2023-04-26T07:42:30.795Z,2.40
2023-04-26T07:45:04.382Z,3.13
2023-04-26T07:47:38.833Z,2.10
2023-04-26T07:50:12.426Z,2.73
2023-04-26T07:52:45.372Z,3.37
2023-04-26T07:55:18.231Z,2.37
2023-04-26T07:57:51.094Z,2.53
2023-04-26T08:00:24.015Z,2.37
2023-04-26T08:03:00.636Z,2.20
2023-04-26T08:05:33.761Z,2.20
2023-04-26T08:08:06.946Z,2.40
2023-04-26T08:10:41.679Z,2.37
2023-04-26T08:13:14.686Z,1.63
2023-04-26T08:15:47.599Z,2.23
2023-04-26T08:18:21.801Z,2.50
2023-04-26T08:20:55.324Z,2.07
2023-04-26T08:23:28.632Z,2.23
2023-04-26T08:26:04.268Z,2.37
2023-04-26T08:28:38.040Z,2.87
2023-04-26T08:31:11.293Z,1.73
2023-04-26T08:33:45.474Z,1.87
2023-04-26T08:36:18.720Z,2.20
2023-04-26T08:38:51.499Z,2.30
2023-04-26T08:41:25.073Z,1.77
2023-04-26T08:43:58.574Z,2.50
2023-04-26T08:46:35.847Z,3.20
2023-04-26T08:49:15.422Z,2.33
2023-04-26T08:51:48.800Z,2.23
2023-04-26T08:54:23.259Z,2.47
2023-04-26T08:56:56.514Z,2.57
2023-04-26T08:59:31.285Z,1.67
2023-04-26T09:02:06.028Z,2.10
2023-04-26T09:04:41.172Z,2.17
2023-04-26T09:07:17.060Z,2.37
2023-04-26T09:09:50.429Z,2.00
2023-04-26T09:12:23.350Z,2.40
2023-04-26T09:14:56.397Z,2.23
2023-04-26T09:17:33.333Z,2.33
2023-04-26T09:20:22.370Z,2.07
2023-04-26T09:22:56.252Z,2.40
2023-04-26T09:25:30.076Z,2.10
2023-04-26T09:28:03.865Z,1.90
2023-04-26T09:30:39.753Z,1.87
2023-04-26T09:33:12.862Z,1.73
2023-04-26T09:35:47.360Z,2.00
2023-04-26T09:38:20.357Z,1.73
2023-04-26T09:40:53.354Z,2.00
2023-04-26T09:43:26.202Z,1.73
2023-04-26T09:46:00.096Z,2.30
2023-04-26T09:48:35.270Z,2.27
2023-04-26T09:51:14.875Z,1.90
2023-04-26T09:53:49.062Z,2.23
2023-04-26T09:56:22.126Z,2.57
2023-04-26T09:58:59.156Z,2.10
2023-04-26T10:01:34.261Z,2.77
2023-04-26T10:04:08.112Z,2.30
2023-04-26T10:06:42.459Z,2.00
2023-04-26T10:09:15.906Z,2.03
2023-04-26T10:11:48.764Z,1.80
2023-04-26T10:14:21.631Z,2.40
2023-04-26T10:16:55.716Z,2.03
2023-04-26T10:19:28.514Z,2.20
2023-04-26T10:22:05.385Z,2.27
2023-04-26T10:24:38.638Z,2.23
2023-04-26T10:27:13.525Z,2.40
2023-04-26T10:30:07.536Z,2.33
2023-04-26T10:32:59.048Z,2.23
2023-04-26T10:35:32.000Z,2.43
2023-04-26T10:38:12.293Z,2.70
2023-04-26T10:40:47.788Z,2.53
2023-04-26T10:43:30.001Z,2.47
2023-04-26T10:46:31.461Z,2.63
2023-04-26T10:49:17.660Z,2.50
2023-04-26T10:52:10.005Z,2.57
2023-04-26T10:54:50.887Z,2.63
2023-04-26T10:57:24.380Z,2.23
2023-04-26T11:00:30.015Z,3.10
2023-04-26T11:03:05.830Z,2.37
2023-04-26T11:05:39.565Z,2.60
2023-04-26T11:08:21.706Z,2.10
2023-04-26T11:11:06.790Z,2.60
2023-04-26T11:13:42.473Z,2.90
2023-04-26T11:16:17.517Z,2.87
2023-04-26T11:18:53.047Z,2.10
2023-04-26T11:21:27.166Z,2.40
2023-04-26T11:24:00.019Z,2.60
2023-04-26T11:26:36.567Z,3.03
2023-04-26T11:29:09.626Z,2.20
2023-04-26T11:31:42.666Z,3.00
2023-04-26T11:34:16.559Z,2.60
2023-04-26T11:36:49.524Z,2.17
2023-04-26T11:39:22.959Z,2.50
2023-04-26T11:42:05.985Z,2.77
2023-04-26T11:44:39.373Z,2.27
2023-04-26T11:47:12.307Z,3.23
2023-04-26T11:49:46.002Z,3.47
2023-04-26T11:52:19.619Z,2.43
2023-04-26T11:55:04.903Z,3.03
2023-04-26T11:57:39.135Z,2.73
2023-04-26T12:00:14.344Z,3.00
2023-04-26T12:02:51.863Z,2.93
2023-04-26T12:05:25.569Z,2.37
2023-04-26T12:07:58.919Z,2.93
2023-04-26T12:10:33.383Z,2.97
2023-04-26T12:13:07.696Z,3.07
2023-04-26T12:15:40.462Z,3.40
2023-04-26T12:18:13.728Z,2.80
2023-04-26T12:20:49.438Z,3.23
2023-04-26T12:23:22.360Z,3.40
2023-04-26T12:25:55.872Z,3.23
2023-04-26T12:28:29.910Z,3.20
2023-04-26T12:31:04.253Z,3.00
2023-04-26T12:33:42.539Z,3.10
2023-04-26T12:36:15.405Z,3.10
2023-04-26T12:38:48.519Z,3.33
2023-04-26T12:41:21.706Z,3.37
2023-04-26T12:43:55.951Z,3.27
2023-04-26T12:46:28.756Z,3.10
2023-04-26T12:49:01.702Z,2.93
2023-04-26T12:51:34.880Z,2.80
2023-04-26T12:54:07.929Z,3.00
2023-04-26T12:56:44.034Z,2.90
2023-04-26T12:59:18.322Z,2.77
2023-04-26T13:01:51.227Z,2.87
2023-04-26T13:04:24.799Z,3.10
2023-04-26T13:06:57.983Z,2.80
2023-04-26T13:09:31.245Z,3.10
2023-04-26T13:12:04.364Z,3.37
2023-04-26T13:14:39.787Z,2.70
2023-04-26T13:17:13.081Z,2.70
2023-04-26T13:19:46.574Z,2.90
2023-04-26T13:22:20.104Z,3.03
2023-04-26T13:24:52.987Z,2.40
2023-04-26T13:27:31.127Z,2.80
2023-04-26T13:30:06.904Z,3.53
2023-04-26T13:32:39.982Z,2.57
2023-04-26T13:35:13.404Z,2.97
2023-04-26T13:37:46.705Z,2.77
2023-04-26T13:40:21.496Z,2.93
2023-04-26T13:42:54.814Z,3.10
2023-04-26T13:45:29.045Z,3.70
2023-04-26T13:48:02.224Z,2.63
2023-04-26T13:50:36.337Z,2.50
2023-04-26T13:53:09.495Z,2.83
2023-04-26T13:55:42.727Z,2.57
2023-04-26T13:58:16.329Z,2.80
2023-04-26T14:00:51.034Z,2.80
2023-04-26T14:03:24.239Z,2.83
2023-04-26T14:05:57.404Z,2.30
2023-04-26T14:08:30.520Z,2.63
2023-04-26T14:11:03.464Z,2.90
2023-04-26T14:13:36.511Z,2.90
2023-04-26T14:16:24.122Z,2.70
2023-04-26T14:18:56.952Z,3.17
2023-04-26T14:21:32.293Z,2.37
2023-04-26T14:24:05.516Z,2.67
2023-04-26T14:26:39.118Z,2.97
2023-04-26T14:29:11.960Z,2.90
2023-04-26T14:31:46.579Z,3.20
2023-04-26T14:34:19.654Z,2.70
2023-04-26T14:36:52.452Z,2.80
2023-04-26T14:39:25.529Z,2.70
2023-04-26T14:41:58.424Z,3.10
2023-04-26T14:44:31.490Z,2.97
2023-04-26T14:47:05.841Z,2.70
2023-04-26T14:49:38.563Z,3.10
2023-04-26T14:52:11.743Z,3.03
2023-04-26T14:54:44.638Z,3.03
2023-04-26T14:57:17.683Z,2.53
2023-04-26T14:59:50.509Z,3.23
2023-04-26T15:02:24.964Z,3.17
2023-04-26T15:04:57.972Z,2.63
2023-04-26T15:07:32.577Z,2.70
2023-04-26T15:10:06.451Z,3.17
2023-04-26T15:12:39.251Z,2.87
2023-04-26T15:15:13.872Z,2.60
2023-04-26T15:17:48.108Z,3.33
2023-04-26T15:20:21.228Z,3.20
2023-04-26T15:22:54.145Z,2.40
2023-04-26T15:25:27.153Z,3.10
2023-04-26T15:28:00.158Z,2.77
2023-04-26T15:30:32.796Z,2.83
2023-04-26T15:33:07.810Z,2.10
2023-04-26T15:35:43.455Z,3.00
2023-04-26T15:38:16.493Z,2.80
2023-04-26T15:40:50.650Z,2.00
2023-04-26T15:43:26.394Z,3.20
2023-04-26T15:45:59.379Z,2.97
2023-04-26T15:48:33.980Z,2.40
2023-04-26T15:51:09.617Z,2.83
2023-04-26T15:53:44.219Z,2.80
2023-04-26T15:56:17.710Z,3.43
2023-04-26T15:58:50.623Z,2.70
2023-04-26T16:01:23.301Z,2.53
2023-04-26T16:03:57.824Z,3.13
2023-04-26T16:06:30.984Z,2.60
2023-04-26T16:09:17.184Z,2.13
2023-04-26T16:11:56.634Z,2.93
2023-04-26T16:14:29.661Z,2.77
2023-04-26T16:17:04.927Z,2.03
2023-04-26T16:19:39.405Z,2.53
2023-04-26T16:22:12.406Z,3.00
2023-04-26T16:24:50.688Z,2.87
2023-04-26T16:27:23.898Z,2.80
2023-04-26T16:29:57.066Z,2.63
2023-04-26T16:32:30.624Z,2.67
2023-04-26T16:35:05.173Z,3.27
2023-04-26T16:37:39.912Z,3.23
2023-04-26T16:40:13.633Z,3.30
2023-04-26T16:42:46.554Z,3.13
2023-04-26T16:45:19.498Z,3.50
2023-04-26T16:47:52.332Z,3.30
2023-04-26T16:50:26.856Z,2.83
2023-04-26T16:52:59.797Z,3.30
2023-04-26T16:55:32.676Z,2.80
2023-04-26T16:58:05.495Z,3.03
2023-04-26T17:00:40.134Z,2.70
2023-04-26T17:03:13.276Z,2.70
2023-04-26T17:05:48.130Z,2.30
2023-04-26T17:08:22.059Z,2.37
2023-04-26T17:10:55.075Z,3.00
2023-04-26T17:13:29.480Z,2.40
2023-04-26T17:16:02.848Z,2.87
2023-04-26T17:18:36.510Z,2.40
2023-04-26T17:21:10.981Z,2.70
2023-04-26T17:23:49.534Z,2.27
2023-04-26T17:26:22.861Z,2.47
2023-04-26T17:28:56.402Z,2.60
2023-04-26T17:31:29.377Z,2.60
2023-04-26T17:34:04.614Z,2.63
2023-04-26T17:36:39.574Z,2.53
2023-04-26T17:39:12.535Z,2.47
2023-04-26T17:41:45.802Z,2.63
2023-04-26T17:44:18.898Z,2.33
2023-04-26T17:46:54.402Z,2.40
2023-04-26T17:49:29.249Z,2.73
2023-04-26T17:52:03.391Z,2.63
2023-04-26T17:54:36.257Z,2.80
2023-04-26T17:57:09.037Z,2.70
2023-04-26T17:59:42.864Z,2.40
2023-04-26T18:02:15.755Z,2.50
2023-04-26T18:04:49.342Z,2.20
2023-04-26T18:07:24.497Z,2.53
2023-04-26T18:09:57.677Z,2.53
2023-04-26T18:12:31.876Z,2.17
2023-04-26T18:15:05.548Z,2.23
2023-04-26T18:17:38.371Z,2.77
2023-04-26T18:20:19.768Z,2.67
2023-04-26T18:22:54.208Z,2.70
2023-04-26T18:25:27.768Z,2.97
2023-04-26T18:28:01.023Z,3.13
2023-04-26T18:30:33.736Z,2.97
2023-04-26T18:33:06.743Z,2.63
2023-04-26T18:35:39.505Z,2.70
2023-04-26T18:38:13.674Z,2.80
2023-04-26T18:40:47.012Z,3.20
2023-04-26T18:43:22.250Z,3.27
2023-04-26T18:45:55.310Z,3.57
2023-04-26T18:48:28.177Z,2.90
2023-04-26T18:51:03.866Z,3.77
2023-04-26T18:53:38.152Z,3.33
2023-04-26T18:56:10.946Z,4.40
2023-04-26T18:58:43.696Z,4.53
2023-04-26T19:01:16.995Z,3.17
2023-04-26T19:03:52.300Z,3.93
2023-04-26T19:06:25.259Z,3.60
2023-04-26T19:09:00.060Z,4.00
2023-04-26T19:11:33.020Z,3.20
2023-04-26T19:14:05.787Z,3.40
2023-04-26T19:16:40.035Z,3.40
2023-04-26T19:19:13.942Z,4.00
2023-04-26T19:21:46.884Z,4.10
2023-04-26T19:24:22.065Z,3.90
2023-04-26T19:26:54.985Z,3.23
2023-04-26T19:29:30.576Z,3.37
2023-04-26T19:32:06.828Z,3.50
2023-04-26T19:34:40.732Z,3.57
2023-04-26T19:37:13.587Z,3.60
2023-04-26T19:39:47.685Z,3.77
2023-04-26T19:42:20.506Z,3.57
2023-04-26T19:44:53.598Z,3.43
2023-04-26T19:47:26.754Z,3.60
2023-04-26T19:50:00.436Z,3.47
2023-04-26T19:52:33.192Z,3.67
2023-04-26T19:55:07.810Z,3.30
2023-04-26T19:57:41.110Z,3.33
2023-04-26T20:00:15.385Z,3.83
2023-04-26T20:02:51.179Z,3.77
2023-04-26T20:05:24.203Z,3.40
2023-04-26T20:07:58.093Z,3.73
2023-04-26T20:10:33.734Z,3.33
2023-04-26T20:13:07.215Z,3.80
2023-04-26T20:15:40.127Z,3.70
2023-04-26T20:18:12.875Z,4.60
2023-04-26T20:20:47.770Z,3.47
2023-04-26T20:23:20.677Z,3.83
2023-04-26T20:25:54.927Z,3.87
2023-04-26T20:28:27.835Z,3.67
2023-04-26T20:31:03.487Z,3.50
2023-04-26T20:33:36.643Z,3.67
2023-04-26T20:36:11.215Z,3.67
2023-04-26T20:38:44.058Z,3.70
2023-04-26T20:41:18.350Z,3.60
2023-04-26T20:43:52.781Z,4.00
2023-04-26T20:46:25.707Z,3.87
2023-04-26T20:48:58.499Z,3.53
2023-04-26T20:51:33.046Z,3.70
2023-04-26T20:54:05.983Z,3.67
2023-04-26T20:56:40.406Z,3.47
2023-04-26T20:59:15.922Z,3.50
2023-04-26T21:01:50.817Z,3.37
2023-04-26T21:04:24.055Z,3.30
2023-04-26T21:06:57.070Z,4.07
2023-04-26T21:09:29.856Z,3.03
2023-04-26T21:12:04.172Z,3.33
2023-04-26T21:14:40.321Z,3.57
2023-04-26T21:17:13.133Z,3.30
2023-04-26T21:19:45.999Z,3.73
2023-04-26T21:22:18.764Z,3.77
2023-04-26T21:24:51.948Z,3.30
2023-04-26T21:27:26.992Z,3.40
2023-04-26T21:30:00.003Z,3.27
2023-04-26T21:32:32.978Z,3.37
2023-04-26T21:35:08.173Z,3.00
2023-04-26T21:37:41.029Z,3.60
2023-04-26T21:40:17.344Z,3.57
2023-04-26T21:43:04.049Z,4.00
2023-04-26T21:45:44.182Z,3.60
2023-04-26T21:48:17.043Z,3.90
2023-04-26T21:50:52.463Z,4.07
2023-04-26T21:53:25.225Z,3.93
2023-04-26T21:55:57.911Z,3.87
2023-04-26T21:58:31.993Z,3.90
2023-04-26T22:01:09.881Z,3.93
2023-04-26T22:03:43.251Z,3.53
2023-04-26T22:06:16.773Z,3.90
2023-04-26T22:08:49.591Z,4.17
2023-04-26T22:11:22.748Z,4.00
2023-04-26T22:13:56.948Z,4.20
2023-04-26T22:16:29.819Z,3.50
2023-04-26T22:19:02.766Z,3.50
2023-04-26T22:21:36.482Z,3.93
2023-04-26T22:24:09.624Z,3.80
2023-04-26T22:26:42.870Z,2.93
2023-04-26T22:29:17.083Z,3.20
2023-04-26T22:31:52.241Z,3.10
2023-04-26T22:34:25.090Z,3.20
2023-04-26T22:37:06.189Z,3.40
2023-04-26T22:39:47.230Z,3.50
2023-04-26T22:42:24.577Z,2.83
2023-04-26T22:44:58.688Z,3.00
2023-04-26T22:47:31.440Z,3.87
2023-04-26T22:50:04.465Z,3.20
2023-04-26T22:52:37.433Z,3.30
2023-04-26T22:55:10.672Z,2.80
2023-04-26T22:57:43.711Z,3.10
2023-04-26T23:00:18.095Z,2.97
2023-04-26T23:02:51.703Z,3.00
2023-04-26T23:05:24.598Z,2.90
2023-04-26T23:07:57.476Z,2.83
2023-04-26T23:10:32.927Z,2.63
2023-04-26T23:13:05.596Z,2.73
2023-04-26T23:15:39.783Z,3.17
2023-04-26T23:18:13.640Z,2.83
2023-04-26T23:20:46.483Z,2.83
2023-04-26T23:23:20.425Z,2.97
2023-04-26T23:25:53.218Z,2.70
2023-04-26T23:28:26.910Z,2.50
2023-04-26T23:31:03.499Z,2.90
2023-04-26T23:33:38.655Z,2.57
2023-04-26T23:36:13.694Z,2.60
2023-04-26T23:38:48.170Z,2.90
2023-04-26T23:41:21.254Z,2.77
2023-04-26T23:43:54.341Z,2.70
2023-04-26T23:46:28.559Z,2.50
2023-04-26T23:49:01.360Z,2.53
2023-04-26T23:51:34.226Z,2.77
2023-04-26T23:54:07.147Z,2.87
2023-04-26T23:56:40.003Z,3.33
2023-04-26T23:59:13.028Z,2.77
